Time;durP1;ratioP1;P1;durP2;ratioP2;P2;SDS_P1;SDS_P2;PMS_P1;PMS_P2;Temp;Humidity;BMP_temperature;BMP_pressure;BME280_temperature;BME280_humidity;BME280_pressure;Samples;Min_cycle;Max_cycle;Signal;HPM_P1;HPM_P2
2021/05/11 00:01:12;;;;;;;5.30;4.80;;;12.70;99.90;;;;;;5059923;28;20182;-36
2021/05/11 00:03:38;;;;;;;5.00;4.50;;;12.70;99.90;;;;;;5058295;28;20200;-36
2021/05/11 00:06:04;;;;;;;5.23;4.73;;;12.70;99.90;;;;;;5059028;28;20258;-35
2021/05/11 00:08:30;;;;;;;4.53;3.90;;;12.70;99.90;;;;;;5057775;28;20459;-36
2021/05/11 00:10:56;;;;;;;5.80;5.20;;;12.70;99.90;;;;;;5058490;28;20190;-35
2021/05/11 00:13:22;;;;;;;5.90;5.40;;;12.70;99.90;;;;;;5058622;28;20433;-35
2021/05/11 00:15:48;;;;;;;6.67;5.30;;;12.60;99.90;;;;;;5057842;28;20432;-36
2021/05/11 00:18:14;;;;;;;5.60;4.53;;;12.70;99.90;;;;;;5058580;28;20178;-34
2021/05/11 00:20:40;;;;;;;5.40;5.00;;;12.60;99.90;;;;;;5056920;28;20249;-36
2021/05/11 00:23:06;;;;;;;7.17;6.47;;;12.60;99.90;;;;;;5057930;28;20416;-36
2021/05/11 00:25:31;;;;;;;6.23;5.70;;;12.60;99.90;;;;;;5058073;28;20770;-36
2021/05/11 00:27:57;;;;;;;5.77;5.17;;;12.60;99.90;;;;;;5057980;28;20416;-36
2021/05/11 00:30:23;;;;;;;8.00;7.30;;;12.50;99.90;;;;;;5046844;28;20194;-36
2021/05/11 00:32:49;;;;;;;8.70;7.90;;;12.50;99.90;;;;;;5038022;28;20174;-37
2021/05/11 00:35:15;;;;;;;8.97;8.17;;;12.50;99.90;;;;;;5047533;28;20582;-36
2021/05/11 00:37:41;;;;;;;8.70;7.97;;;12.50;99.90;;;;;;5057112;28;20420;-36
2021/05/11 00:40:08;;;;;;;8.50;7.80;;;12.50;99.90;;;;;;5057784;28;20190;-35
2021/05/11 00:42:34;;;;;;;8.70;7.87;;;12.50;99.90;;;;;;5057137;28;20181;-36
2021/05/11 00:45:01;;;;;;;9.77;8.80;;;12.50;99.90;;;;;;5057008;28;20443;-35
2021/05/11 00:47:26;;;;;;;10.27;9.27;;;12.50;99.90;;;;;;5058244;28;20495;-35
2021/05/11 00:49:52;;;;;;;10.77;9.87;;;12.40;99.90;;;;;;5058058;28;20487;-36
2021/05/11 00:52:18;;;;;;;11.43;10.43;;;12.40;99.90;;;;;;5057877;28;20190;-36
2021/05/11 00:54:48;;;;;;;11.03;10.03;;;12.50;99.90;;;;;;5057001;28;20278;-36
2021/05/11 00:57:14;;;;;;;9.67;8.87;;;12.50;99.90;;;;;;5054561;28;20432;-36
2021/05/11 00:59:40;;;;;;;9.37;8.57;;;12.50;99.90;;;;;;5059136;28;20497;-36
2021/05/11 01:02:07;;;;;;;9.83;8.93;;;12.50;99.90;;;;;;5057394;28;20444;-36
2021/05/11 01:04:33;;;;;;;9.87;8.97;;;12.50;99.90;;;;;;5057480;28;20474;-36
2021/05/11 01:06:59;;;;;;;9.07;8.17;;;12.60;99.90;;;;;;5056669;28;20486;-35
2021/05/11 01:09:25;;;;;;;9.20;8.30;;;12.60;99.90;;;;;;5057566;28;20520;-36
2021/05/11 01:11:51;;;;;;;8.87;8.03;;;12.60;99.90;;;;;;5057021;28;20182;-36
2021/05/11 01:14:16;;;;;;;10.27;9.37;;;12.60;99.90;;;;;;5057051;28;20764;-36
2021/05/11 01:16:44;;;;;;;9.10;8.30;;;12.60;99.90;;;;;;5056226;28;20494;-36
2021/05/11 01:19:37;;;;;;;9.87;8.97;;;12.60;99.90;;;;;;5057197;28;20269;-36
2021/05/11 01:24:54;;;;;;;9.93;9.03;;;12.60;99.90;;;;;;5045686;28;20456;-35
2021/05/11 01:33:00;;;;;;;10.47;9.47;;;12.50;99.90;;;;;;5077115;28;20681;-36
2021/05/11 01:50:05;;;;;;;10.80;9.70;;;12.40;99.90;;;;;;5017739;28;20476;-36
2021/05/11 02:24:36;;;;;;;17.40;13.37;;;12.20;99.90;;;;;;5055899;28;20462;-35
2021/05/11 02:27:02;;;;;;;14.90;12.30;;;12.20;99.90;;;;;;5056692;28;20761;-35
2021/05/11 02:29:28;;;;;;;15.63;12.90;;;12.20;99.90;;;;;;5056372;28;20208;-35
2021/05/11 02:31:53;;;;;;;17.63;14.27;;;12.20;99.90;;;;;;5055484;28;20507;-36
2021/05/11 02:34:19;;;;;;;17.93;14.80;;;12.20;99.90;;;;;;5055524;28;20247;-36
2021/05/11 02:36:45;;;;;;;16.60;14.20;;;12.20;99.90;;;;;;5055196;28;20181;-35
2021/05/11 02:39:10;;;;;;;15.90;14.13;;;12.20;99.90;;;;;;5055248;28;20248;-35
2021/05/11 02:41:36;;;;;;;17.77;15.70;;;12.20;99.90;;;;;;5055216;28;20250;-35
2021/05/11 02:44:02;;;;;;;18.13;15.20;;;12.10;99.90;;;;;;5056281;28;20192;-36
2021/05/11 02:46:27;;;;;;;17.13;14.80;;;12.10;99.90;;;;;;5056825;28;20232;-36
2021/05/11 02:48:55;;;;;;;18.50;14.30;;;12.10;99.90;;;;;;5056359;28;20186;-35
2021/05/11 02:51:21;;;;;;;16.93;13.70;;;12.00;99.90;;;;;;5055868;28;20192;-35
2021/05/11 02:53:46;;;;;;;17.77;14.80;;;11.90;99.90;;;;;;5055012;28;20424;-35
2021/05/11 02:56:12;;;;;;;15.77;13.60;;;12.00;99.90;;;;;;5055824;28;20243;-35
2021/05/11 02:58:38;;;;;;;14.63;12.00;;;12.00;99.90;;;;;;5056031;28;20182;-36
2021/05/11 03:01:04;;;;;;;14.80;12.30;;;12.00;99.90;;;;;;5055741;28;20276;-36
2021/05/11 03:03:29;;;;;;;17.33;13.50;;;11.90;99.90;;;;;;5056109;28;20431;-36
2021/05/11 03:05:55;;;;;;;13.70;12.20;;;11.90;99.90;;;;;;5059892;28;20613;-34
2021/05/11 03:08:20;;;;;;;16.23;11.63;;;12.00;99.90;;;;;;5059151;28;20206;-36
2021/05/11 03:10:46;;;;;;;14.17;11.40;;;11.90;99.90;;;;;;5058777;28;20207;-35
2021/05/11 03:13:12;;;;;;;16.80;12.13;;;11.90;99.90;;;;;;5058404;28;20170;-35
2021/05/11 03:15:37;;;;;;;14.87;11.83;;;12.00;99.90;;;;;;5058388;28;20522;-36
2021/05/11 03:18:03;;;;;;;11.93;10.43;;;12.00;99.90;;;;;;5057814;28;20444;-36
2021/05/11 03:20:29;;;;;;;15.10;11.47;;;12.00;99.90;;;;;;5058413;28;20178;-35
2021/05/11 03:22:54;;;;;;;12.17;10.63;;;12.00;99.90;;;;;;5059632;28;20260;-35
2021/05/11 03:25:20;;;;;;;11.77;9.60;;;11.90;99.90;;;;;;5059393;28;20826;-36
2021/05/11 03:27:46;;;;;;;12.47;9.83;;;11.90;99.90;;;;;;5058603;28;20174;-36
2021/05/11 03:30:13;;;;;;;10.27;8.60;;;12.00;99.90;;;;;;5059566;28;20181;-36
2021/05/11 03:32:39;;;;;;;13.43;9.77;;;11.90;99.90;;;;;;5058817;28;20169;-36
2021/05/11 03:35:05;;;;;;;12.60;10.23;;;11.90;99.90;;;;;;5058484;28;21082;-35
2021/05/11 03:37:30;;;;;;;14.63;11.07;;;11.90;99.90;;;;;;5058530;28;20178;-34
2021/05/11 03:39:56;;;;;;;10.60;9.37;;;11.80;99.90;;;;;;5058458;28;20531;-36
2021/05/11 03:42:35;;;;;;;11.37;9.67;;;11.80;99.90;;;;;;5062485;28;20182;-36
2021/05/11 03:45:03;;;;;;;12.20;9.80;;;11.80;99.90;;;;;;5068151;28;20174;-37
2021/05/11 03:47:35;;;;;;;12.80;10.03;;;11.80;99.90;;;;;;5063285;28;20506;-36
2021/05/11 03:50:02;;;;;;;12.27;11.00;;;11.80;99.90;;;;;;5058543;28;20439;-36
2021/05/11 03:52:27;;;;;;;11.20;10.03;;;11.80;99.90;;;;;;5058519;28;20430;-36
2021/05/11 03:54:53;;;;;;;14.60;13.10;;;11.80;99.90;;;;;;5057260;28;20432;-36
2021/05/11 03:57:19;;;;;;;14.77;11.17;;;11.80;99.90;;;;;;5057907;28;20190;-36
2021/05/11 03:59:44;;;;;;;14.83;12.20;;;11.80;99.90;;;;;;5058905;28;20459;-35
2021/05/11 04:02:10;;;;;;;16.83;13.23;;;11.90;99.90;;;;;;5058023;28;20768;-36
2021/05/11 04:04:35;;;;;;;16.40;13.97;;;11.80;99.90;;;;;;5058692;28;20180;-36
2021/05/11 04:07:01;;;;;;;14.80;12.47;;;11.90;99.90;;;;;;5058303;28;20304;-36
2021/05/11 04:17:35;;;;;;;29.63;18.50;;;11.90;99.90;;;;;;5056672;28;20423;-36
2021/05/11 04:20:00;;;;;;;27.23;17.77;;;12.00;99.90;;;;;;5057677;28;20424;-36
2021/05/11 04:22:26;;;;;;;24.33;17.20;;;12.00;99.90;;;;;;5057652;28;20519;-36
2021/05/11 04:24:54;;;;;;;23.90;17.97;;;12.00;99.90;;;;;;5057627;28;20193;-37
2021/05/11 04:27:19;;;;;;;28.43;20.87;;;12.10;99.90;;;;;;5057938;28;20665;-35
2021/05/11 04:29:47;;;;;;;26.73;18.03;;;12.10;99.90;;;;;;5057633;28;20424;-35
2021/05/11 04:32:13;;;;;;;27.37;17.97;;;12.20;99.90;;;;;;5057947;28;20519;-35
2021/05/11 04:34:39;;;;;;;24.23;16.43;;;12.30;99.90;;;;;;5057763;28;20420;-35
2021/05/11 04:37:04;;;;;;;24.50;17.50;;;12.30;99.90;;;;;;5058122;28;20272;-35
2021/05/11 04:39:30;;;;;;;24.40;17.23;;;12.30;99.90;;;;;;5057398;28;20437;-36
2021/05/11 04:41:55;;;;;;;21.17;15.90;;;12.30;99.90;;;;;;5058014;28;20182;-35
2021/05/11 04:44:24;;;;;;;20.30;15.77;;;12.30;99.90;;;;;;5057867;28;20571;-35
2021/05/11 04:46:57;;;;;;;21.63;16.57;;;12.30;99.90;;;;;;5057475;28;20217;-35
2021/05/11 04:49:24;;;;;;;21.00;15.13;;;12.40;99.90;;;;;;5057467;28;20493;-35
2021/05/11 04:51:50;;;;;;;20.77;15.10;;;12.40;99.90;;;;;;5056621;28;20793;-35
2021/05/11 04:54:15;;;;;;;18.97;14.90;;;12.40;99.90;;;;;;5056954;28;20479;-35
2021/05/11 04:56:41;;;;;;;22.03;17.07;;;12.40;99.90;;;;;;5057573;28;20254;-35
2021/05/11 04:59:06;;;;;;;19.33;15.37;;;12.40;99.90;;;;;;5057385;28;20404;-34
2021/05/11 05:01:33;;;;;;;18.03;13.93;;;12.40;99.90;;;;;;5056813;28;20173;-35
2021/05/11 05:03:59;;;;;;;20.10;14.67;;;12.40;99.90;;;;;;5057329;28;20440;-36
2021/05/11 05:06:25;;;;;;;22.97;16.97;;;12.40;99.90;;;;;;5057255;28;20492;-36
2021/05/11 05:08:51;;;;;;;21.30;15.30;;;12.50;99.90;;;;;;5057127;28;20894;-35
2021/05/11 05:11:17;;;;;;;19.93;15.40;;;12.50;99.90;;;;;;5059049;28;20572;-36
2021/05/11 05:13:44;;;;;;;21.07;15.57;;;12.50;99.90;;;;;;5068432;28;20192;-37
2021/05/11 05:16:10;;;;;;;24.00;17.27;;;12.60;99.90;;;;;;5068886;28;20501;-36
2021/05/11 05:18:35;;;;;;;19.13;15.57;;;12.60;99.90;;;;;;5068412;28;20428;-37
2021/05/11 05:21:05;;;;;;;20.10;16.20;;;12.60;99.90;;;;;;5060182;28;20337;-35
2021/05/11 05:23:36;;;;;;;19.27;16.03;;;12.60;99.90;;;;;;5057793;28;20233;-36
2021/05/11 05:26:05;;;;;;;19.30;15.73;;;12.60;99.90;;;;;;5055667;28;20468;-35
2021/05/11 05:28:34;;;;;;;19.40;15.63;;;12.70;99.90;;;;;;5056767;28;20440;-36
2021/05/11 05:31:01;;;;;;;18.63;15.57;;;12.70;99.90;;;;;;5056390;28;20416;-36
2021/05/11 05:33:35;;;;;;;20.00;15.57;;;12.70;99.90;;;;;;5055781;28;20434;-36
2021/05/11 05:36:02;;;;;;;20.60;15.73;;;12.70;99.90;;;;;;5056455;28;20519;-35
2021/05/11 05:38:28;;;;;;;16.83;14.60;;;12.70;99.90;;;;;;5057473;28;20434;-34
2021/05/11 05:41:03;;;;;;;17.63;14.80;;;12.70;99.90;;;;;;5061495;28;20503;-37
2021/05/11 05:43:28;;;;;;;19.73;15.00;;;12.80;99.90;;;;;;5058810;28;20477;-36
2021/05/11 05:45:56;;;;;;;18.67;14.73;;;12.90;99.90;;;;;;5056577;28;20499;-36
2021/05/11 05:48:22;;;;;;;18.27;16.13;;;13.00;99.90;;;;;;5054781;28;20186;-36
2021/05/11 05:50:52;;;;;;;21.83;16.00;;;13.10;99.90;;;;;;5054353;28;20845;-35
2021/05/11 05:53:29;;;;;;;19.40;15.63;;;13.20;99.90;;;;;;5054854;28;20423;-35
2021/05/11 05:55:54;;;;;;;18.53;16.10;;;13.20;99.90;;;;;;5054674;28;20857;-36
2021/05/11 05:58:20;;;;;;;20.90;17.07;;;13.20;99.90;;;;;;5054641;28;20460;-36
2021/05/11 06:00:47;;;;;;;18.47;15.63;;;13.30;99.90;;;;;;5053841;28;20544;-36
2021/05/11 06:03:32;;;;;;;22.20;17.20;;;13.40;99.90;;;;;;5054646;28;20194;-34
2021/05/11 06:05:58;;;;;;;20.37;16.43;;;13.30;99.90;;;;;;5055775;28;20792;-35
2021/05/11 06:08:27;;;;;;;23.00;18.07;;;13.40;99.90;;;;;;5056068;28;20516;-34
2021/05/11 06:10:59;;;;;;;21.13;16.70;;;13.40;99.90;;;;;;5055433;28;20173;-35
2021/05/11 06:13:30;;;;;;;18.70;15.20;;;13.50;99.90;;;;;;5055575;28;20452;-34
2021/05/11 06:18:57;;;;;;;22.37;16.90;;;13.60;99.90;;;;;;5014681;28;20425;-33
2021/05/11 06:21:23;;;;;;;22.50;18.20;;;13.70;99.90;;;;;;5047244;28;20439;-34
2021/05/11 06:23:49;;;;;;;22.73;18.37;;;13.70;99.90;;;;;;5056179;28;20479;-34
2021/05/11 06:26:14;;;;;;;20.53;16.70;;;13.70;99.90;;;;;;5056777;28;20468;-34
2021/05/11 06:28:43;;;;;;;23.27;18.60;;;13.70;99.90;;;;;;5067805;28;20226;-35
2021/05/11 06:31:09;;;;;;;21.43;17.10;;;13.80;99.90;;;;;;5067467;28;20174;-35
2021/05/11 06:33:35;;;;;;;23.10;17.60;;;13.80;99.90;;;;;;5057503;28;20557;-34
2021/05/11 06:36:01;;;;;;;20.40;16.37;;;13.80;99.90;;;;;;5054277;28;20849;-36
2021/05/11 06:38:26;;;;;;;17.83;15.70;;;13.80;99.90;;;;;;5055991;28;20443;-33
2021/05/11 06:40:52;;;;;;;20.40;16.10;;;13.90;99.90;;;;;;5058716;28;20416;-35
2021/05/11 06:43:31;;;;;;;18.00;14.40;;;14.00;99.90;;;;;;5059780;28;20197;-35
2021/05/11 06:53:39;;;;;;;19.17;14.40;;;14.30;99.90;;;;;;5059736;28;20432;-35
2021/05/11 06:56:07;;;;;;;15.53;13.50;;;14.40;99.90;;;;;;5059560;28;20189;-35
2021/05/11 06:58:33;;;;;;;15.20;13.07;;;14.40;99.90;;;;;;5059061;28;20436;-34
2021/05/11 07:01:00;;;;;;;16.80;14.63;;;14.50;99.80;;;;;;5055981;28;20864;-35
2021/05/11 07:03:25;;;;;;;18.90;15.40;;;14.40;99.90;;;;;;5058591;28;20182;-34
2021/05/11 07:05:52;;;;;;;20.63;16.70;;;14.50;99.90;;;;;;5058332;28;20592;-35
2021/05/11 07:08:38;;;;;;;19.27;15.07;;;14.60;99.90;;;;;;5057429;28;20185;-35
2021/05/11 07:11:11;;;;;;;17.97;15.23;;;14.60;99.90;;;;;;5056975;28;20723;-34
2021/05/11 07:13:36;;;;;;;19.90;16.60;;;14.70;99.60;;;;;;5057349;28;20462;-35
2021/05/11 07:16:02;;;;;;;20.20;16.23;;;14.80;99.50;;;;;;5056984;28;20654;-35
2021/05/11 07:18:28;;;;;;;16.97;15.17;;;14.80;99.50;;;;;;5056670;28;20197;-34
2021/05/11 07:20:58;;;;;;;16.33;14.60;;;14.90;99.30;;;;;;5058404;28;20219;-35
2021/05/11 07:23:24;;;;;;;16.50;14.67;;;15.00;99.40;;;;;;5040251;28;20571;-35
2021/05/11 07:30:57;;;;;;;16.83;14.80;;;15.40;98.10;;;;;;5057605;28;20481;-35
2021/05/11 07:33:31;;;;;;;17.13;14.60;;;15.50;98.10;;;;;;5061820;28;20761;-35
2021/05/11 07:35:57;;;;;;;19.23;15.20;;;15.50;98.00;;;;;;5058034;28;20466;-35
2021/05/11 07:38:26;;;;;;;17.47;14.77;;;15.60;97.90;;;;;;5057329;28;20456;-35
2021/05/11 07:40:52;;;;;;;18.07;15.10;;;15.50;97.90;;;;;;5056244;28;20182;-36
2021/05/11 07:43:21;;;;;;;16.03;13.90;;;15.30;97.60;;;;;;5057166;28;20505;-34
2021/05/11 08:15:37;;;;;;;10.33;9.07;;;16.40;96.10;;;;;;5056363;28;20463;-35
2021/05/11 08:28:25;;;;;;;8.80;7.90;;;16.80;94.90;;;;;;5055890;28;20431;-35
2021/05/11 08:30:50;;;;;;;7.40;6.60;;;16.80;94.80;;;;;;5057465;28;20420;-34
2021/05/11 08:33:16;;;;;;;7.23;6.53;;;16.80;94.50;;;;;;5056838;28;20255;-34
2021/05/11 08:35:42;;;;;;;8.67;6.73;;;17.00;94.20;;;;;;5056977;28;20453;-34
2021/05/11 08:38:07;;;;;;;5.70;5.17;;;17.20;94.20;;;;;;5056840;28;20192;-34
2021/05/11 08:40:34;;;;;;;6.63;5.90;;;17.50;94.00;;;;;;5056912;28;20177;-34
2021/05/11 08:43:04;;;;;;;7.20;6.50;;;17.90;93.20;;;;;;5056565;28;20319;-35
2021/05/11 08:45:31;;;;;;;7.47;6.77;;;18.30;92.30;;;;;;5056498;28;20431;-35
2021/05/11 08:47:57;;;;;;;6.80;6.17;;;18.60;92.10;;;;;;5054847;28;20510;-36
2021/05/11 08:50:37;;;;;;;6.63;6.03;;;18.90;91.40;;;;;;5056697;28;20420;-36
2021/05/11 08:54:10;;;;;;;5.80;5.23;;;19.10;90.90;;;;;;5057327;28;20221;-35
2021/05/11 09:23:33;;;;;;;6.03;5.40;;;19.10;90.30;;;;;;5058645;28;20415;-35
2021/05/11 09:27:47;;;;;;;5.67;5.17;;;19.60;88.20;;;;;;5056122;28;20475;-35
2021/05/11 09:57:13;;;;;;;5.07;4.57;;;18.70;90.20;;;;;;5057163;28;20466;-36
2021/05/11 10:47:00;;;;;;;7.80;7.10;;;20.80;82.30;;;;;;5057947;28;20298;-36
2021/05/11 10:49:40;;;;;;;6.60;6.00;;;21.00;81.00;;;;;;5059675;28;20419;-35
2021/05/11 10:54:53;;;;;;;7.47;6.73;;;21.20;79.50;;;;;;5059245;28;20427;-35
2021/05/11 10:57:57;;;;;;;8.67;6.93;;;21.20;80.10;;;;;;5057371;28;20403;-35
2021/05/11 11:03:17;;;;;;;6.43;5.83;;;20.70;81.50;;;;;;5066488;28;20473;-35
2021/05/11 11:05:45;;;;;;;8.83;8.03;;;21.40;81.10;;;;;;5059494;28;20459;-35
2021/05/11 11:08:43;;;;;;;7.90;7.10;;;21.70;79.30;;;;;;5058624;28;20428;-35
2021/05/11 11:11:20;;;;;;;10.60;9.60;;;22.30;78.30;;;;;;5041759;28;20727;-35
2021/05/11 11:13:46;;;;;;;8.00;7.10;;;21.60;78.70;;;;;;5061636;28;20845;-35
2021/05/11 11:16:12;;;;;;;9.37;8.47;;;22.40;78.70;;;;;;5056793;28;20477;-36
2021/05/11 11:18:38;;;;;;;8.73;7.97;;;23.20;75.70;;;;;;5056171;28;20185;-36
2021/05/11 11:21:20;;;;;;;9.43;8.63;;;24.00;73.20;;;;;;5056884;28;20412;-35
2021/05/11 11:23:52;;;;;;;9.27;8.37;;;24.40;71.00;;;;;;5054944;28;20277;-35
2021/05/11 11:26:28;;;;;;;10.93;9.90;;;25.10;71.00;;;;;;5055069;28;20470;-35
2021/05/11 11:29:08;;;;;;;10.47;9.53;;;25.50;68.40;;;;;;5056750;28;20605;-35
2021/05/11 11:31:44;;;;;;;8.90;8.10;;;25.90;65.20;;;;;;5057653;28;20623;-35
2021/05/11 11:34:36;;;;;;;10.87;9.87;;;26.60;62.60;;;;;;5057125;28;20557;-36
2021/05/11 11:37:07;;;;;;;9.73;8.43;;;27.30;58.80;;;;;;5058399;28;20431;-35
2021/05/11 11:40:11;;;;;;;7.40;6.77;;;25.90;61.30;;;;;;5058936;28;20426;-36
2021/05/11 11:42:42;;;;;;;8.97;8.27;;;26.50;60.10;;;;;;5037429;28;20424;-36
2021/05/11 11:45:10;;;;;;;9.60;8.80;;;27.40;58.40;;;;;;5059365;28;20715;-35
2021/05/11 11:47:42;;;;;;;8.30;7.60;;;26.00;58.00;;;;;;5058120;28;20521;-36
2021/05/11 11:50:09;;;;;;;9.33;7.70;;;26.20;58.90;;;;;;5057780;28;20525;-35
2021/05/11 11:52:45;;;;;;;8.37;7.67;;;26.10;59.80;;;;;;5057010;28;20521;-36
2021/05/11 11:57:45;;;;;;;9.00;7.43;;;23.20;61.20;;;;;;5058524;28;20412;-35
2021/05/11 12:00:19;;;;;;;7.47;6.43;;;22.80;66.00;;;;;;5058286;28;20913;-36
2021/05/11 12:02:52;;;;;;;5.93;5.10;;;22.80;68.40;;;;;;5058366;28;20427;-35
2021/05/11 12:05:18;;;;;;;5.87;5.37;;;23.00;67.40;;;;;;5058718;28;20446;-36
2021/05/11 12:08:02;;;;;;;5.90;5.40;;;23.10;67.20;;;;;;5057859;28;21065;-36
2021/05/11 12:10:28;;;;;;;4.83;4.43;;;22.60;67.90;;;;;;5055506;28;20420;-36
2021/05/11 12:12:55;;;;;;;8.03;4.40;;;22.50;69.50;;;;;;5056336;28;20404;-36
2021/05/11 12:15:21;;;;;;;5.13;4.73;;;22.30;69.70;;;;;;5056446;28;20448;-35
2021/05/11 12:18:06;;;;;;;4.77;4.37;;;21.80;71.60;;;;;;5057379;28;20419;-35
2021/05/11 12:20:33;;;;;;;3.33;3.03;;;21.80;72.70;;;;;;5057533;28;20682;-36
2021/05/11 12:23:06;;;;;;;4.00;3.60;;;21.50;73.90;;;;;;5056886;28;20456;-35
2021/05/11 12:25:33;;;;;;;2.90;2.60;;;21.30;73.90;;;;;;5061825;28;20489;-35
2021/05/11 12:27:59;;;;;;;3.67;2.70;;;21.20;74.50;;;;;;5057444;28;20576;-35
2021/05/11 12:30:41;;;;;;;2.30;2.10;;;21.20;74.60;;;;;;5058130;28;20507;-36
2021/05/11 12:33:12;;;;;;;2.37;2.17;;;21.30;75.60;;;;;;5057863;28;20265;-35
2021/05/11 12:35:42;;;;;;;2.90;2.60;;;21.20;75.60;;;;;;5057527;28;20424;-36
2021/05/11 12:38:26;;;;;;;2.60;2.27;;;20.60;76.40;;;;;;5055942;28;20714;-36
2021/05/11 12:43:48;;;;;;;5.90;2.43;;;20.10;81.30;;;;;;5058574;28;20846;-35
2021/05/11 12:46:27;;;;;;;3.00;1.97;;;19.80;82.30;;;;;;5058499;28;20525;-36
2021/05/11 12:49:01;;;;;;;2.33;2.17;;;19.50;84.50;;;;;;5058078;28;20430;-36
2021/05/11 12:51:40;;;;;;;2.40;2.20;;;19.30;85.60;;;;;;5058433;28;20590;-35
2021/05/11 12:57:27;;;;;;;12.63;2.73;;;19.30;85.20;;;;;;5057755;28;20510;-35
2021/05/11 13:17:01;;;;;;;4.73;4.33;;;17.80;91.30;;;;;;5056655;28;20427;-36
2021/05/11 13:27:18;;;;;;;8.10;7.27;;;17.30;92.40;;;;;;5054147;28;20466;-35
2021/05/11 13:32:38;;;;;;;8.63;7.83;;;17.00;93.30;;;;;;5055520;28;20456;-36
2021/05/11 13:35:01;;;;;;;6.23;5.73;;;16.80;93.80;;;;;;5056305;28;20429;-36
2021/05/11 13:37:28;;;;;;;7.40;6.90;;;16.70;94.30;;;;;;5057463;28;20408;-36
2021/05/11 13:39:55;;;;;;;8.57;7.97;;;16.60;94.60;;;;;;5056116;28;20428;-36
2021/05/11 13:42:21;;;;;;;8.13;7.53;;;16.50;95.10;;;;;;5054597;28;20416;-36
2021/05/11 13:44:48;;;;;;;8.67;8.07;;;16.50;95.50;;;;;;5055725;28;20511;-36
2021/05/11 13:47:14;;;;;;;8.40;7.87;;;16.50;95.60;;;;;;5055277;28;20629;-35
2021/05/11 13:49:40;;;;;;;8.07;7.47;;;16.50;96.00;;;;;;5054753;28;20519;-36
2021/05/11 13:52:05;;;;;;;9.10;8.40;;;16.40;96.10;;;;;;5055799;28;20180;-36
2021/05/11 13:54:31;;;;;;;7.77;7.17;;;16.40;96.10;;;;;;5055909;28;20886;-36
2021/05/11 14:05:01;;;;;;;8.10;7.50;;;16.30;96.40;;;;;;5059110;28;20505;-36
2021/05/11 14:07:27;;;;;;;7.43;6.90;;;16.30;96.70;;;;;;5061177;28;20877;-36
2021/05/11 14:09:52;;;;;;;8.23;7.63;;;16.20;96.90;;;;;;5056838;28;20178;-37
2021/05/11 14:12:18;;;;;;;7.70;7.10;;;16.10;97.10;;;;;;5053695;28;20176;-36
2021/05/11 14:14:44;;;;;;;7.70;7.10;;;16.10;97.40;;;;;;5054386;28;20178;-35
2021/05/11 14:17:09;;;;;;;6.30;5.80;;;16.10;97.40;;;;;;5055604;28;20196;-36
2021/05/11 14:19:35;;;;;;;5.73;5.33;;;16.00;97.10;;;;;;5054819;28;20181;-36
2021/05/11 14:22:01;;;;;;;5.60;5.20;;;16.00;97.20;;;;;;5054412;28;20564;-35
2021/05/11 14:24:27;;;;;;;5.13;4.70;;;15.80;97.20;;;;;;5055768;28;20525;-36
2021/05/11 14:26:54;;;;;;;5.83;5.33;;;15.80;97.40;;;;;;5054888;28;20495;-38
2021/05/11 14:29:19;;;;;;;5.87;5.37;;;15.70;97.60;;;;;;5054138;28;20837;-37
2021/05/11 14:31:45;;;;;;;5.23;4.73;;;15.60;97.50;;;;;;5053576;28;20189;-36
2021/05/11 14:34:13;;;;;;;4.77;4.30;;;15.60;97.60;;;;;;5053609;28;20235;-36
2021/05/11 14:36:38;;;;;;;4.30;3.90;;;15.70;97.50;;;;;;5054934;28;20182;-36
2021/05/11 14:39:05;;;;;;;6.13;4.27;;;15.70;97.60;;;;;;5055102;28;20440;-36
2021/05/11 14:41:30;;;;;;;4.40;4.00;;;15.70;97.50;;;;;;5055987;28;20460;-35
2021/05/11 14:43:56;;;;;;;4.33;4.03;;;15.70;97.30;;;;;;5054655;28;20420;-36
2021/05/11 14:46:22;;;;;;;3.47;3.20;;;15.80;97.40;;;;;;5054945;28;20214;-36
2021/05/11 14:48:48;;;;;;;3.50;3.20;;;15.90;96.90;;;;;;5087234;28;20177;-36
2021/05/11 14:51:13;;;;;;;3.13;2.93;;;15.80;96.90;;;;;;5054759;28;20514;-36
2021/05/11 14:53:40;;;;;;;3.63;3.00;;;15.70;96.80;;;;;;5055583;28;20282;-36
2021/05/11 14:56:08;;;;;;;3.50;3.20;;;15.70;97.40;;;;;;5057524;28;20194;-36
2021/05/11 14:58:34;;;;;;;2.60;2.40;;;15.70;97.50;;;;;;5054849;28;20439;-36
2021/05/11 15:01:00;;;;;;;2.33;2.13;;;15.60;97.50;;;;;;5056844;28;20423;-36
2021/05/11 15:03:25;;;;;;;2.80;2.60;;;15.40;97.80;;;;;;5090614;28;20935;-36
2021/05/11 15:05:51;;;;;;;1.93;1.73;;;15.50;97.90;;;;;;5056564;28;20248;-36
2021/05/11 15:08:17;;;;;;;1.50;1.40;;;15.10;97.90;;;;;;5057363;28;20562;-36
2021/05/11 15:10:43;;;;;;;2.30;1.60;;;14.90;98.30;;;;;;5057482;28;20341;-35
2021/05/11 15:13:09;;;;;;;2.00;1.30;;;14.70;98.50;;;;;;5057857;28;20425;-36
2021/05/11 15:15:36;;;;;;;1.47;1.20;;;14.70;98.80;;;;;;5057992;28;20949;-36
2021/05/11 15:18:04;;;;;;;2.20;1.27;;;14.70;99.00;;;;;;5058456;28;20969;-36
2021/05/11 15:20:31;;;;;;;1.70;1.17;;;14.80;99.00;;;;;;5058579;28;20478;-36
2021/05/11 15:22:57;;;;;;;2.10;1.70;;;14.80;99.10;;;;;;5058544;28;20781;-35
2021/05/11 15:25:23;;;;;;;1.73;1.30;;;14.80;99.20;;;;;;5058115;28;20420;-36
2021/05/11 15:27:53;;;;;;;1.60;1.23;;;14.80;99.40;;;;;;5055939;28;20463;-36
2021/05/11 15:30:19;;;;;;;1.70;1.10;;;14.90;99.30;;;;;;5058493;28;20162;-36
2021/05/11 15:33:09;;;;;;;2.47;1.20;;;15.00;99.10;;;;;;5058733;28;20409;-36
2021/05/11 15:35:35;;;;;;;1.80;1.27;;;15.10;98.80;;;;;;5059907;28;20465;-36
2021/05/11 15:38:03;;;;;;;1.50;1.30;;;15.20;98.80;;;;;;5091556;28;20507;-36
2021/05/11 15:40:35;;;;;;;2.07;1.40;;;15.30;98.60;;;;;;5058643;28;20520;-46
2021/05/11 15:43:01;;;;;;;2.50;1.30;;;15.30;98.60;;;;;;5058892;28;20408;-37
2021/05/11 15:45:27;;;;;;;2.10;1.30;;;15.30;98.50;;;;;;5058957;28;20413;-36
2021/05/11 15:47:53;;;;;;;1.50;1.20;;;15.20;98.30;;;;;;5058701;28;20653;-36
2021/05/11 15:50:23;;;;;;;1.73;1.23;;;15.10;98.80;;;;;;5059482;28;20421;-36
2021/05/11 15:52:49;;;;;;;2.10;1.20;;;15.00;98.90;;;;;;5058741;28;20423;-36
2021/05/11 15:55:15;;;;;;;2.80;1.00;;;14.90;98.80;;;;;;5059055;28;20541;-35
2021/05/11 15:57:41;;;;;;;1.50;1.27;;;14.90;99.10;;;;;;5058722;28;20503;-35
2021/05/11 16:00:09;;;;;;;1.53;1.20;;;15.00;98.80;;;;;;5058014;28;20438;-35
2021/05/11 16:02:37;;;;;;;1.33;1.23;;;15.10;99.00;;;;;;5058272;28;20501;-35
2021/05/11 16:05:07;;;;;;;2.27;1.60;;;14.80;99.10;;;;;;5058374;28;20514;-36
2021/05/11 16:07:33;;;;;;;2.13;1.80;;;14.00;99.90;;;;;;5057413;28;20905;-34
2021/05/11 16:10:02;;;;;;;2.90;1.30;;;13.80;99.90;;;;;;5057883;28;20839;-35
2021/05/11 16:12:28;;;;;;;2.00;1.80;;;13.60;99.90;;;;;;5072740;28;20440;-34
2021/05/11 16:14:53;;;;;;;2.13;1.63;;;13.20;99.90;;;;;;5057349;28;20435;-35
2021/05/11 16:17:19;;;;;;;2.03;1.80;;;13.20;99.90;;;;;;5058292;28;20177;-34
2021/05/11 16:19:48;;;;;;;1.70;1.40;;;13.30;99.90;;;;;;5058355;28;20212;-34
2021/05/11 16:22:14;;;;;;;3.23;2.20;;;13.30;99.90;;;;;;5090857;28;20236;-35
2021/05/11 16:24:40;;;;;;;4.97;1.70;;;13.20;99.90;;;;;;5074658;28;20463;-35
2021/05/11 16:27:06;;;;;;;2.40;1.47;;;13.20;99.90;;;;;;5058840;28;20823;-35
2021/05/11 16:29:31;;;;;;;2.23;1.70;;;13.10;99.90;;;;;;5058842;28;20408;-35
2021/05/11 16:31:58;;;;;;;1.80;1.50;;;13.10;99.90;;;;;;5057923;28;20486;-35
2021/05/11 16:34:24;;;;;;;2.50;1.60;;;12.90;99.90;;;;;;5059620;28;20170;-36
2021/05/11 16:36:50;;;;;;;2.87;1.43;;;12.80;99.90;;;;;;5058701;28;20606;-34
2021/05/11 16:39:16;;;;;;;1.30;1.20;;;12.80;99.90;;;;;;5056126;28;20432;-36
2021/05/11 16:41:42;;;;;;;1.80;1.30;;;12.80;99.90;;;;;;5052080;28;20548;-36
2021/05/11 16:44:08;;;;;;;4.30;1.60;;;12.70;99.90;;;;;;5038119;28;20209;-35
2021/05/11 16:46:34;;;;;;;2.20;1.77;;;12.70;99.90;;;;;;5037470;28;20507;-35
2021/05/11 16:49:01;;;;;;;2.80;1.80;;;12.80;99.90;;;;;;5038804;28;20217;-35
2021/05/11 16:51:27;;;;;;;2.60;1.83;;;12.70;99.90;;;;;;5072837;28;20410;-34
2021/05/11 16:53:53;;;;;;;2.03;1.80;;;12.80;99.90;;;;;;5039733;28;20425;-35
2021/05/11 16:56:19;;;;;;;2.23;1.60;;;12.80;99.90;;;;;;5038122;28;20457;-35
2021/05/11 16:58:45;;;;;;;2.50;1.47;;;12.70;99.90;;;;;;5037355;28;20441;-36
2021/05/11 17:01:10;;;;;;;1.83;1.57;;;12.80;99.90;;;;;;5036516;28;20194;-35
2021/05/11 17:03:36;;;;;;;2.40;2.10;;;12.80;99.90;;;;;;5035896;28;20170;-35
2021/05/11 17:06:02;;;;;;;1.70;1.43;;;12.80;99.90;;;;;;5036311;28;20277;-35
2021/05/11 17:08:28;;;;;;;2.67;1.23;;;12.80;99.90;;;;;;5036858;28;20232;-35
2021/05/11 17:10:54;;;;;;;1.93;1.70;;;12.70;99.90;;;;;;5036590;28;20421;-35
2021/05/11 17:13:19;;;;;;;4.07;1.50;;;12.70;99.90;;;;;;5036496;28;20178;-35
2021/05/11 17:15:45;;;;;;;1.90;1.30;;;12.60;99.90;;;;;;5036399;28;20178;-35